Terminal Aerodrome Forecast
Issued by NWS Springfield, MO

Home | Current Version | Previous Version | Text Only | Print | Product List | Glossary On
Versions: 1 2 3 4 5 6 7 8 9 10 11 12 13 14 15 16 17 18 19 20 21 22 23 24 25 26 27 28
000
FTUS43 KSGF 140352 AAB
TAFSGF
TAF AMD
KSGF 140352Z 1404/1424 09003KT 2SM -DZ BR OVC003
     FM140800 03004KT 2SM -RA BR OVC003
     FM141600 02004KT 3SM -RADZ OVC003=

USA.gov is the U.S. government's official web portal to all federal, state and local government web resources and services.